Time;durP1;ratioP1;P1;durP2;ratioP2;P2;SDS_P1;SDS_P2;PMS_P1;PMS_P2;Temp;Humidity;BMP_temperature;BMP_pressure;BME280_temperature;BME280_humidity;BME280_pressure;Samples;Min_cycle;Max_cycle;Signal;HPM_P1;HPM_P2
2023/03/07 00:00:13;;;;;;;14.40;8.35;;;;;;;-2.56;93.57;100161.88;4899321;28;20048;-68
2023/03/07 00:02:44;;;;;;;15.50;7.78;;;;;;;-2.53;93.67;100172.19;4916659;28;20054;-68
2023/03/07 00:05:14;;;;;;;11.43;6.32;;;;;;;-2.66;93.39;100170.91;4915871;28;20052;-67
2023/03/07 00:07:46;;;;;;;12.48;6.95;;;;;;;-2.68;93.34;100168.28;4915437;28;20810;-68
2023/03/07 00:10:17;;;;;;;13.38;7.43;;;;;;;-2.74;94.29;100152.72;4915204;28;20139;-67
2023/03/07 00:12:48;;;;;;;12.43;7.20;;;;;;;-2.67;94.35;100159.81;4906401;28;20052;-66
2023/03/07 00:15:19;;;;;;;12.35;6.95;;;;;;;-2.55;94.39;100155.91;4901394;28;20462;-69
2023/03/07 00:17:49;;;;;;;13.80;7.70;;;;;;;-2.52;93.60;100156.00;4911228;28;20217;-68
2023/03/07 00:20:20;;;;;;;14.32;6.78;;;;;;;-2.57;92.83;100165.22;4902108;28;20052;-66
2023/03/07 00:22:52;;;;;;;12.70;6.00;;;;;;;-2.69;92.83;100140.97;4898567;28;20145;-68
2023/03/07 00:25:23;;;;;;;15.35;6.20;;;;;;;-2.61;93.40;100157.44;4898714;28;20049;-66
2023/03/07 00:27:53;;;;;;;11.30;6.45;;;;;;;-2.71;93.78;100142.59;4898709;28;20079;-67
2023/03/07 00:30:24;;;;;;;9.25;5.60;;;;;;;-2.64;93.17;100139.44;4883833;28;20049;-68
2023/03/07 00:32:55;;;;;;;14.50;7.18;;;;;;;-2.67;93.95;100139.34;4880158;28;20145;-65
2023/03/07 00:35:26;;;;;;;12.02;6.78;;;;;;;-2.61;93.61;100138.69;4880541;28;20049;-68
2023/03/07 00:37:58;;;;;;;11.10;7.20;;;;;;;-2.50;93.85;100131.34;4892887;28;20094;-69
2023/03/07 00:40:29;;;;;;;17.95;6.53;;;;;;;-2.60;93.12;100130.19;4895270;28;20050;-68
2023/03/07 00:42:59;;;;;;;12.73;6.72;;;;;;;-2.51;93.62;100134.75;4902920;28;20117;-64
2023/03/07 00:45:30;;;;;;;13.50;6.82;;;;;;;-2.39;93.51;100137.72;4898641;28;20103;-62
2023/03/07 00:48:00;;;;;;;13.77;6.32;;;;;;;-2.46;92.63;100141.75;4898219;28;20048;-65
2023/03/07 00:50:31;;;;;;;11.13;6.30;;;;;;;-2.59;92.57;100133.63;4898501;28;20679;-66
2023/03/07 00:53:03;;;;;;;12.90;6.75;;;;;;;-2.56;92.84;100137.16;4876431;28;20041;-70
2023/03/07 00:55:34;;;;;;;13.68;7.43;;;;;;;-2.48;92.61;100139.97;4893578;28;20084;-66
2023/03/07 00:58:04;;;;;;;14.65;7.85;;;;;;;-2.43;92.82;100143.53;4903641;28;20719;-69
2023/03/07 01:00:35;;;;;;;13.38;6.43;;;;;;;-2.48;92.04;100160.44;4909779;28;20048;-69
2023/03/07 01:03:06;;;;;;;15.23;7.13;;;;;;;-2.58;91.79;100158.38;4912020;28;20049;-64
2023/03/07 01:05:40;;;;;;;17.27;7.22;;;;;;;-2.50;92.54;100139.03;4923559;28;20403;-65
2023/03/07 01:08:12;;;;;;;10.65;5.90;;;;;;;-2.28;92.90;100148.31;4903997;28;20090;-68
2023/03/07 01:10:43;;;;;;;13.75;6.85;;;;;;;-2.09;92.54;100150.66;4912392;28;20064;-66
2023/03/07 01:13:14;;;;;;;13.93;6.85;;;;;;;-1.90;91.73;100146.13;4912081;28;20398;-65
2023/03/07 01:15:45;;;;;;;11.90;6.57;;;;;;;-1.93;89.38;100141.78;4912381;28;20064;-66
2023/03/07 01:18:15;;;;;;;15.30;6.28;;;;;;;-1.92;89.10;100138.41;4909690;28;20051;-65
2023/03/07 01:20:46;;;;;;;12.88;6.40;;;;;;;-1.99;88.86;100136.47;4907635;28;20049;-64
2023/03/07 01:23:18;;;;;;;12.85;6.63;;;;;;;-1.89;88.65;100132.53;4907267;28;20044;-67
2023/03/07 01:25:49;;;;;;;12.77;6.15;;;;;;;-1.84;88.09;100144.63;4907239;28;20132;-64
2023/03/07 01:28:19;;;;;;;12.00;6.22;;;;;;;-1.92;87.44;100133.28;4913639;28;20049;-64
2023/03/07 01:30:58;;;;;;;11.43;5.65;;;;;;;-2.00;87.60;100120.25;4910124;28;20056;-64
2023/03/07 01:33:29;;;;;;;13.18;6.32;;;;;;;-1.93;88.14;100128.97;4905797;28;20046;-63
2023/03/07 01:35:59;;;;;;;15.52;6.75;;;;;;;-1.95;87.57;100130.59;4915285;28;20068;-64
2023/03/07 01:38:33;;;;;;;13.93;5.97;;;;;;;-2.03;88.00;100114.13;4900743;28;20064;-61
2023/03/07 01:41:04;;;;;;;13.20;6.35;;;;;;;-2.13;88.38;100114.66;4894717;28;20135;-66
2023/03/07 01:43:35;;;;;;;10.27;6.18;;;;;;;-2.00;88.54;100119.34;4894080;28;20064;-65
2023/03/07 01:46:34;;;;;;;16.60;7.07;;;;;;;-2.27;87.24;100048.56;4893936;28;20128;-67
2023/03/07 01:49:10;;;;;;;12.20;5.63;;;;;;;-1.68;85.80;100102.44;4884187;28;20057;-65
2023/03/07 01:51:43;;;;;;;13.38;6.90;;;;;;;-1.53;85.97;100114.84;4868404;28;20041;-62
2023/03/07 01:54:18;;;;;;;13.02;7.18;;;;;;;-1.54;86.02;100101.16;4895835;28;20048;-64
2023/03/07 01:56:49;;;;;;;11.98;6.20;;;;;;;-1.49;85.00;100114.09;4890171;28;20463;-64
2023/03/07 01:59:25;;;;;;;12.45;7.22;;;;;;;-2.09;85.06;100037.16;4896058;28;21183;-62
2023/03/07 02:01:58;;;;;;;17.58;6.75;;;;;;;-1.61;85.23;100106.06;4909823;28;20056;-63
2023/03/07 02:04:34;;;;;;;12.23;5.63;;;;;;;-1.67;85.53;100121.22;4910054;28;20042;-64
2023/03/07 02:07:06;;;;;;;13.18;6.07;;;;;;;-2.25;85.90;100056.28;4910945;28;20052;-63
2023/03/07 02:09:42;;;;;;;10.55;5.93;;;;;;;-2.11;86.59;100110.47;4901325;28;20170;-62
2023/03/07 02:12:14;;;;;;;13.48;6.38;;;;;;;-2.22;87.22;100122.91;4891286;28;20048;-63
2023/03/07 02:14:46;;;;;;;12.77;6.38;;;;;;;-2.21;87.43;100117.84;4892217;28;20049;-61
2023/03/07 02:17:18;;;;;;;9.45;5.78;;;;;;;-2.22;87.59;100107.56;4912776;28;20076;-64
2023/03/07 02:20:04;;;;;;;10.60;6.28;;;;;;;-2.22;87.43;100111.00;4912804;28;20045;-64
2023/03/07 02:22:35;;;;;;;12.70;7.05;;;;;;;-2.25;87.17;100110.88;4903983;28;20044;-65
2023/03/07 02:25:15;;;;;;;12.70;6.65;;;;;;;-2.21;87.73;100115.28;4912759;28;20048;-65
2023/03/07 02:27:50;;;;;;;11.45;5.95;;;;;;;-2.17;87.22;100106.91;4905285;28;20056;-66
2023/03/07 02:30:23;;;;;;;10.48;5.15;;;;;;;-2.20;86.11;100111.94;4908463;28;20056;-62
2023/03/07 02:32:54;;;;;;;14.20;6.03;;;;;;;-2.31;86.05;100117.50;4900506;28;20053;-66
2023/03/07 02:35:26;;;;;;;11.90;6.35;;;;;;;-2.46;86.95;100082.03;4900624;28;20127;-65
2023/03/07 02:37:58;;;;;;;12.45;6.45;;;;;;;-2.09;86.83;100103.72;4904607;28;20048;-66
2023/03/07 02:40:31;;;;;;;17.35;7.30;;;;;;;-1.98;86.79;100112.59;4898184;28;20169;-62
2023/03/07 02:43:08;;;;;;;20.35;7.82;;;;;;;-2.20;86.87;100022.34;4903587;28;20068;-63
2023/03/07 02:45:39;;;;;;;11.82;5.60;;;;;;;-1.64;85.57;100082.91;4903159;28;20153;-63
2023/03/07 02:48:09;;;;;;;15.30;6.85;;;;;;;-1.45;85.33;100080.03;4922017;28;20060;-66
2023/03/07 02:50:40;;;;;;;12.20;6.47;;;;;;;-1.31;84.54;100072.75;4917491;28;20050;-62
2023/03/07 02:53:10;;;;;;;11.25;6.05;;;;;;;-1.09;84.29;100069.09;4895595;28;20523;-63
2023/03/07 02:55:41;;;;;;;15.20;7.00;;;;;;;-0.86;83.26;100069.72;4894685;28;20599;-65
2023/03/07 02:58:13;;;;;;;15.88;7.13;;;;;;;-0.49;83.65;100065.53;4894630;28;20503;-62
2023/03/07 03:00:43;;;;;;;15.38;7.30;;;;;;;-0.18;81.69;100063.72;4896451;28;20056;-64
2023/03/07 03:03:14;;;;;;;11.07;6.45;;;;;;;-0.14;80.68;100061.25;4900147;28;20142;-65
2023/03/07 03:05:44;;;;;;;17.27;6.68;;;;;;;0.16;80.09;100071.34;4915333;28;20063;-63
2023/03/07 03:08:15;;;;;;;13.98;6.22;;;;;;;0.55;78.69;100057.66;4915635;28;20044;-63
2023/03/07 03:10:45;;;;;;;12.15;6.47;;;;;;;0.65;77.10;100061.28;4915266;28;20052;-62
2023/03/07 03:13:18;;;;;;;11.52;6.47;;;;;;;0.79;76.81;100064.97;4915037;28;20052;-62
2023/03/07 03:15:50;;;;;;;15.90;6.45;;;;;;;0.94;75.66;100053.25;4911895;28;20049;-63
2023/03/07 03:18:20;;;;;;;14.38;6.15;;;;;;;1.02;74.81;100067.13;4916300;28;20147;-64
2023/03/07 03:20:51;;;;;;;12.70;6.10;;;;;;;1.07;73.76;100034.63;4919050;28;20060;-62
2023/03/07 03:23:21;;;;;;;14.25;6.07;;;;;;;0.98;73.53;100055.06;4919439;28;20048;-61
2023/03/07 03:25:59;;;;;;;12.85;5.93;;;;;;;0.77;74.77;100061.50;4918833;28;20059;-65
2023/03/07 03:28:31;;;;;;;14.18;5.57;;;;;;;0.64;75.14;100062.09;4898972;28;20459;-63
2023/03/07 03:31:04;;;;;;;17.83;6.60;;;;;;;0.62;75.17;100059.50;4905272;28;20085;-62
2023/03/07 03:33:35;;;;;;;13.43;6.50;;;;;;;0.67;75.50;100054.44;4912997;28;20146;-64
2023/03/07 03:36:09;;;;;;;17.65;6.40;;;;;;;0.63;74.91;100037.22;4911548;28;20056;-62
2023/03/07 03:38:39;;;;;;;14.25;6.10;;;;;;;0.77;74.91;100060.63;4901864;28;21424;-61
2023/03/07 03:41:14;;;;;;;14.18;6.03;;;;;;;0.75;74.78;100052.91;4914915;28;20057;-64
2023/03/07 03:43:46;;;;;;;14.75;6.60;;;;;;;0.77;74.82;100061.50;4910084;28;20048;-62
2023/03/07 03:46:18;;;;;;;21.23;7.05;;;;;;;0.78;74.92;100041.81;4912130;28;20642;-62
2023/03/07 03:48:53;;;;;;;13.20;6.00;;;;;;;1.06;73.89;100012.31;4913359;28;20064;-62
2023/03/07 03:51:25;;;;;;;10.77;5.00;;;;;;;1.47;72.80;100048.19;4914674;28;20075;-60
2023/03/07 03:53:56;;;;;;;15.48;6.35;;;;;;;1.78;72.41;100051.28;4915214;28;20052;-62
2023/03/07 03:56:28;;;;;;;14.48;6.50;;;;;;;2.04;71.65;100055.09;4917739;28;20052;-60
2023/03/07 03:59:00;;;;;;;12.15;6.20;;;;;;;2.00;71.20;100053.34;4913542;28;20053;-60
2023/03/07 04:01:31;;;;;;;12.95;6.55;;;;;;;2.01;70.96;100044.75;4912674;28;20052;-60
2023/03/07 04:04:01;;;;;;;13.57;5.93;;;;;;;2.04;71.22;100049.97;4897867;28;20051;-60
2023/03/07 04:06:34;;;;;;;10.90;5.60;;;;;;;1.90;70.38;100041.19;4909845;28;20049;-60
2023/03/07 04:09:05;;;;;;;17.63;6.97;;;;;;;1.99;70.35;100049.03;4913120;28;20049;-61
2023/03/07 04:11:36;;;;;;;12.48;6.35;;;;;;;1.98;71.07;100044.72;4916699;28;20048;-61
2023/03/07 04:14:08;;;;;;;16.63;6.75;;;;;;;2.26;70.77;100051.13;4892830;28;20041;-60
2023/03/07 04:16:39;;;;;;;12.70;5.90;;;;;;;2.38;70.31;100059.03;4913581;28;20051;-61
2023/03/07 04:19:12;;;;;;;11.90;6.00;;;;;;;2.59;70.19;100045.53;4917092;28;20054;-62
2023/03/07 04:21:42;;;;;;;18.17;6.75;;;;;;;2.80;69.88;100049.25;4911564;28;20739;-61
2023/03/07 04:24:13;;;;;;;19.75;6.43;;;;;;;3.06;68.52;100046.09;4909664;28;20040;-61
2023/03/07 04:26:43;;;;;;;13.77;6.30;;;;;;;3.29;68.17;100051.47;4901569;28;20084;-60
2023/03/07 04:29:15;;;;;;;13.60;6.43;;;;;;;3.73;67.72;100051.00;4914852;28;20056;-59
2023/03/07 04:31:46;;;;;;;13.13;6.22;;;;;;;4.07;66.62;100050.41;4897964;28;20075;-60
2023/03/07 04:34:16;;;;;;;16.02;6.47;;;;;;;4.25;66.31;100052.25;4911038;28;20140;-60
2023/03/07 04:36:47;;;;;;;15.90;7.68;;;;;;;4.38;65.50;100057.47;4912328;28;20483;-61
2023/03/07 04:39:17;;;;;;;14.95;7.50;;;;;;;4.48;65.19;100054.09;4895023;28;20059;-61
2023/03/07 04:41:48;;;;;;;15.32;8.38;;;;;;;4.35;65.38;100062.66;4878524;28;20061;-61
2023/03/07 04:44:20;;;;;;;17.05;9.10;;;;;;;4.20;64.58;100061.69;4900855;28;20049;-62
2023/03/07 04:46:51;;;;;;;24.58;9.85;;;;;;;4.16;65.30;100065.09;4893740;28;20053;-61
2023/03/07 04:49:23;;;;;;;28.02;12.85;;;;;;;4.25;65.29;100062.59;4898257;28;20098;-59
2023/03/07 04:51:54;;;;;;;17.17;7.72;;;;;;;4.36;65.89;100065.22;4894900;28;20140;-60
2023/03/07 04:54:24;;;;;;;13.20;7.72;;;;;;;4.15;65.96;100034.94;4897243;28;20052;-60
2023/03/07 04:56:55;;;;;;;14.73;7.15;;;;;;;4.37;65.17;100069.56;4901323;28;20110;-61
2023/03/07 04:59:27;;;;;;;14.20;6.15;;;;;;;4.38;65.27;100073.00;4905031;28;20056;-61
2023/03/07 05:01:58;;;;;;;15.27;7.60;;;;;;;4.31;65.04;100075.53;4897419;28;20767;-61
2023/03/07 05:04:28;;;;;;;20.92;8.32;;;;;;;4.31;65.04;100083.28;4904804;28;20428;-60
2023/03/07 05:06:59;;;;;;;16.30;7.43;;;;;;;4.17;65.48;100079.78;4893289;28;20049;-61
2023/03/07 05:09:29;;;;;;;16.98;9.07;;;;;;;4.15;65.88;100085.81;4911434;28;21657;-60
2023/03/07 05:12:00;;;;;;;23.17;11.63;;;;;;;4.04;65.56;100088.28;4898519;28;20049;-60
2023/03/07 05:14:32;;;;;;;17.33;8.38;;;;;;;3.94;66.00;100102.00;4900745;28;20049;-59
2023/03/07 05:17:03;;;;;;;17.40;8.50;;;;;;;3.80;66.51;100104.50;4897332;28;20924;-60
2023/03/07 05:19:34;;;;;;;15.20;8.00;;;;;;;3.74;66.82;100105.28;4925371;28;20044;-61
2023/03/07 05:22:04;;;;;;;25.95;12.68;;;;;;;3.86;67.18;100115.72;4900196;28;20152;-61
2023/03/07 05:24:35;;;;;;;28.40;13.35;;;;;;;3.75;67.31;100076.03;4905512;28;20070;-62
2023/03/07 05:27:06;;;;;;;23.92;10.60;;;;;;;3.93;67.12;100116.66;4908031;28;20040;-62
2023/03/07 05:29:38;;;;;;;50.65;22.50;;;;;;;3.53;67.26;100063.75;4905735;28;20048;-60
2023/03/07 05:32:09;;;;;;;36.53;16.65;;;;;;;4.06;68.13;100133.13;4905845;28;20053;-62
2023/03/07 05:34:40;;;;;;;38.58;18.23;;;;;;;4.13;67.63;100124.56;4911156;28;20065;-61
2023/03/07 05:37:10;;;;;;;16.65;7.88;;;;;;;4.21;67.90;100125.47;4908113;28;20056;-61
2023/03/07 05:39:41;;;;;;;16.95;8.15;;;;;;;4.25;67.45;100135.00;4897783;28;20402;-61
2023/03/07 05:42:12;;;;;;;24.23;9.18;;;;;;;4.16;67.12;100140.09;4906561;28;20072;-61
2023/03/07 05:44:44;;;;;;;24.17;11.75;;;;;;;3.95;66.89;100134.78;4904029;28;20135;-62
2023/03/07 05:47:14;;;;;;;20.50;9.80;;;;;;;3.95;67.02;100135.63;4906021;28;20501;-61
2023/03/07 05:49:45;;;;;;;24.50;12.63;;;;;;;3.96;66.63;100136.50;4903035;28;20052;-62
2023/03/07 05:52:15;;;;;;;29.05;12.40;;;;;;;3.92;66.45;100135.63;4908559;28;20056;-60
2023/03/07 05:54:46;;;;;;;24.25;11.23;;;;;;;3.81;66.97;100143.25;4900149;28;20082;-62
2023/03/07 05:57:20;;;;;;;22.15;10.63;;;;;;;3.85;67.53;100145.03;4901407;28;20044;-61
2023/03/07 05:59:52;;;;;;;21.45;9.73;;;;;;;4.00;68.46;100153.78;4902571;28;20201;-61
2023/03/07 06:02:23;;;;;;;30.42;12.07;;;;;;;3.89;68.21;100158.81;4904040;28;20044;-62
2023/03/07 06:04:53;;;;;;;24.25;10.63;;;;;;;3.80;68.36;100157.03;4907312;28;20368;-61
2023/03/07 06:07:24;;;;;;;19.00;9.63;;;;;;;3.67;69.10;100170.69;4907913;28;20098;-62
2023/03/07 06:09:54;;;;;;;20.40;9.95;;;;;;;3.53;69.82;100177.44;4902081;28;20051;-62
2023/03/07 06:12:25;;;;;;;21.92;10.77;;;;;;;3.52;70.26;100175.69;4909975;28;20531;-61
2023/03/07 06:15:00;;;;;;;30.27;13.52;;;;;;;3.67;70.89;100181.03;4908054;28;20049;-61
2023/03/07 06:17:30;;;;;;;30.33;14.30;;;;;;;3.71;70.91;100167.28;4903127;28;20448;-61
2023/03/07 06:20:02;;;;;;;28.23;14.40;;;;;;;3.86;70.87;100182.94;4904911;28;20067;-60
2023/03/07 06:22:33;;;;;;;23.13;11.02;;;;;;;3.85;70.49;100186.38;4905762;28;20067;-62
2023/03/07 06:25:04;;;;;;;26.10;13.00;;;;;;;3.86;70.67;100177.75;4913870;28;20058;-61
2023/03/07 06:27:34;;;;;;;26.38;13.27;;;;;;;3.39;70.15;100118.72;4904173;28;20051;-61
2023/03/07 06:30:08;;;;;;;30.10;13.98;;;;;;;3.81;70.41;100181.16;4909758;28;20052;-62
2023/03/07 06:32:39;;;;;;;31.75;12.93;;;;;;;3.76;70.78;100188.88;4908549;28;20064;-62
2023/03/07 06:35:11;;;;;;;26.52;12.65;;;;;;;3.71;71.00;100193.13;4917473;28;20461;-62
2023/03/07 06:37:41;;;;;;;23.52;11.50;;;;;;;3.66;70.94;100189.63;4911071;28;20140;-61
2023/03/07 06:40:12;;;;;;;23.05;11.10;;;;;;;3.57;71.11;100189.50;4908234;28;20063;-62
2023/03/07 06:42:43;;;;;;;21.65;11.73;;;;;;;3.65;70.98;100204.25;4908792;28;20048;-61
2023/03/07 06:45:15;;;;;;;28.67;11.95;;;;;;;3.63;71.16;100205.09;4911091;28;20046;-62
2023/03/07 06:47:46;;;;;;;26.70;12.30;;;;;;;3.60;71.64;100207.66;4905580;28;20519;-60
2023/03/07 06:50:16;;;;;;;23.00;11.35;;;;;;;3.56;71.19;100208.47;4907584;28;20768;-62
2023/03/07 06:52:58;;;;;;;23.73;12.05;;;;;;;3.58;71.61;100227.44;4896713;28;20057;-62
2023/03/07 06:55:28;;;;;;;22.85;11.27;;;;;;;3.57;71.51;100236.91;4911993;28;20049;-62
2023/03/07 06:57:59;;;;;;;22.63;11.88;;;;;;;3.65;71.41;100249.91;4919081;28;20496;-63
2023/03/07 07:00:31;;;;;;;23.40;11.80;;;;;;;3.79;71.15;100242.31;4916485;28;20069;-63
2023/03/07 07:03:02;;;;;;;31.83;12.43;;;;;;;3.88;70.81;100248.44;4913422;28;20060;-62
2023/03/07 07:05:32;;;;;;;25.48;11.90;;;;;;;3.88;70.34;100248.44;4911239;28;20052;-62
2023/03/07 07:08:03;;;;;;;24.05;11.05;;;;;;;3.92;70.53;100251.03;4906221;28;20044;-62
2023/03/07 07:10:33;;;;;;;22.45;10.70;;;;;;;3.84;70.29;100262.19;4906084;28;20510;-62
2023/03/07 07:13:04;;;;;;;20.52;11.10;;;;;;;3.76;70.26;100268.97;4908499;28;20049;-63
2023/03/07 07:15:36;;;;;;;20.70;11.10;;;;;;;3.68;70.26;100265.44;4906006;28;21206;-62
2023/03/07 07:18:07;;;;;;;27.13;11.88;;;;;;;3.77;70.41;100281.06;4909479;28;20048;-64
2023/03/07 07:20:40;;;;;;;24.80;11.10;;;;;;;3.67;70.53;100274.94;4903680;28;20443;-63
2023/03/07 07:23:10;;;;;;;22.35;12.32;;;;;;;3.63;70.67;100278.31;4910115;28;20484;-63
2023/03/07 07:25:41;;;;;;;29.58;12.48;;;;;;;3.57;71.11;100279.94;4906050;28;20048;-63
2023/03/07 07:28:11;;;;;;;24.52;10.98;;;;;;;3.27;70.98;100257.19;4907738;28;20045;-60
2023/03/07 07:30:43;;;;;;;22.30;10.90;;;;;;;3.35;70.89;100291.75;4901333;28;20834;-62
2023/03/07 07:33:14;;;;;;;22.67;11.00;;;;;;;3.32;71.57;100287.41;4903085;28;20063;-63
2023/03/07 07:35:45;;;;;;;29.75;13.35;;;;;;;2.76;71.74;100230.66;4908081;28;20442;-63
2023/03/07 07:38:16;;;;;;;22.33;11.43;;;;;;;3.03;71.76;100300.75;4905970;28;20135;-62
2023/03/07 07:40:47;;;;;;;20.75;10.75;;;;;;;2.84;71.81;100293.56;4908258;28;20056;-62
2023/03/07 07:43:18;;;;;;;20.35;11.10;;;;;;;2.78;72.22;100294.34;4904330;28;20133;-63
2023/03/07 07:45:50;;;;;;;26.17;11.13;;;;;;;2.75;72.61;100308.94;4908240;28;20515;-63
2023/03/07 07:48:21;;;;;;;25.95;10.70;;;;;;;2.59;72.45;100308.66;4906484;28;20106;-64
2023/03/07 07:50:51;;;;;;;23.17;11.43;;;;;;;2.56;72.61;100318.94;4906084;28;20174;-62
2023/03/07 07:53:22;;;;;;;23.67;9.57;;;;;;;2.55;72.75;100319.78;4905961;28;20056;-63
2023/03/07 07:55:52;;;;;;;23.55;10.70;;;;;;;2.42;72.74;100320.44;4908210;28;20522;-62
2023/03/07 08:05:59;;;;;;;21.65;10.30;;;;;;;1.80;73.77;100343.28;4911556;28;20046;-63
2023/03/07 08:08:31;;;;;;;25.63;10.65;;;;;;;1.68;74.33;100355.09;4897992;28;20402;-63
2023/03/07 08:11:03;;;;;;;23.35;11.32;;;;;;;1.25;74.84;100305.25;4906853;28;20113;-64
2023/03/07 08:13:35;;;;;;;20.90;10.18;;;;;;;1.50;74.92;100349.56;4911374;28;20056;-65
2023/03/07 08:16:13;;;;;;;25.90;11.30;;;;;;;1.15;75.25;100316.16;4913459;28;20068;-65
2023/03/07 08:18:50;;;;;;;19.17;9.52;;;;;;;1.29;75.34;100355.94;4895295;28;20093;-65
2023/03/07 08:21:24;;;;;;;24.23;10.93;;;;;;;1.28;75.37;100371.38;4898219;28;20482;-65
2023/03/07 08:23:56;;;;;;;21.73;10.07;;;;;;;1.17;75.44;100370.25;4908337;28;20140;-64
2023/03/07 08:26:27;;;;;;;24.73;10.40;;;;;;;1.11;75.89;100365.81;4905603;28;20049;-64
2023/03/07 08:29:00;;;;;;;20.63;10.35;;;;;;;0.89;75.92;100359.28;4903696;28;20076;-64
2023/03/07 08:31:31;;;;;;;21.90;10.68;;;;;;;1.00;75.73;100377.56;4900594;28;20129;-64
2023/03/07 08:34:05;;;;;;;20.90;10.25;;;;;;;0.80;76.31;100354.81;4905620;28;20152;-66
2023/03/07 08:36:38;;;;;;;25.75;11.52;;;;;;;0.91;76.37;100387.63;4906818;28;20049;-64
2023/03/07 08:39:09;;;;;;;25.15;12.07;;;;;;;0.91;76.40;100393.66;4899256;28;20057;-65
2023/03/07 08:41:40;;;;;;;28.45;12.85;;;;;;;0.88;76.42;100393.56;4913289;28;20175;-65
2023/03/07 08:44:13;;;;;;;26.67;11.38;;;;;;;0.83;76.72;100385.75;4906426;28;20057;-66
2023/03/07 08:46:46;;;;;;;25.25;10.73;;;;;;;0.78;77.25;100392.47;4902403;28;20084;-66
2023/03/07 08:49:17;;;;;;;24.83;10.35;;;;;;;0.75;77.50;100402.69;4909000;28;20084;-65
2023/03/07 08:51:50;;;;;;;25.15;10.88;;;;;;;0.76;77.37;100409.56;4903381;28;20048;-67
2023/03/07 08:54:20;;;;;;;28.67;12.73;;;;;;;0.66;77.54;100407.59;4893637;28;20117;-66
2023/03/07 08:56:54;;;;;;;31.60;15.48;;;;;;;0.46;77.24;100403.63;4906406;28;20059;-66
2023/03/07 08:59:27;;;;;;;31.80;14.57;;;;;;;0.23;77.14;100411.59;4907683;28;20075;-66
2023/03/07 09:01:58;;;;;;;39.63;15.00;;;;;;;0.04;77.62;100414.47;4904545;28;20040;-67
2023/03/07 09:04:31;;;;;;;25.77;10.73;;;;;;;-0.19;78.16;100417.25;4887629;28;20063;-64
2023/03/07 09:07:04;;;;;;;17.92;9.50;;;;;;;-0.36;79.45;100418.44;4902991;28;20379;-67
2023/03/07 09:09:34;;;;;;;19.48;10.60;;;;;;;-0.47;79.83;100426.69;4908884;28;20402;-66
2023/03/07 09:12:11;;;;;;;33.13;12.68;;;;;;;-0.53;80.26;100447.00;4900122;28;20049;-66
2023/03/07 09:14:44;;;;;;;67.43;21.98;;;;;;;-0.54;80.88;100434.16;4894488;28;20118;-65
2023/03/07 09:17:15;;;;;;;54.75;22.23;;;;;;;-0.63;80.95;100438.97;4904102;28;20464;-66
2023/03/07 09:19:45;;;;;;;49.58;21.60;;;;;;;-0.72;81.34;100439.56;4905164;28;20055;-66
2023/03/07 09:22:21;;;;;;;46.97;21.23;;;;;;;-0.87;81.33;100445.94;4903020;28;20055;-65
2023/03/07 09:24:51;;;;;;;33.25;17.83;;;;;;;-1.04;81.66;100451.34;4893413;28;20143;-66
2023/03/07 09:27:22;;;;;;;24.92;10.75;;;;;;;-1.19;82.32;100451.72;4908136;28;20048;-64
2023/03/07 09:29:54;;;;;;;25.15;10.77;;;;;;;-1.33;82.73;100441.81;4905550;28;20106;-65
2023/03/07 09:32:24;;;;;;;19.50;10.00;;;;;;;-1.55;83.43;100441.91;4905415;28;20174;-65
2023/03/07 09:34:56;;;;;;;21.42;9.93;;;;;;;-1.64;84.27;100441.59;4903897;28;20925;-65
2023/03/07 09:37:28;;;;;;;20.33;9.05;;;;;;;-1.75;84.80;100449.78;4903196;28;20128;-65
2023/03/07 09:40:00;;;;;;;17.85;9.10;;;;;;;-1.83;85.92;100443.47;4903922;28;20057;-65
2023/03/07 09:42:42;;;;;;;21.65;8.95;;;;;;;-1.87;86.36;100454.44;4907894;28;21555;-64
2023/03/07 09:45:32;;;;;;;18.83;9.23;;;;;;;-2.38;86.99;100383.44;4899105;28;20048;-65
2023/03/07 09:48:33;;;;;;;20.85;10.13;;;;;;;-1.95;87.44;100445.59;4896695;28;20102;-64
2023/03/07 09:51:15;;;;;;;35.20;14.57;;;;;;;-1.89;87.56;100445.84;4898342;28;20103;-65
2023/03/07 09:54:32;;;;;;;40.22;20.17;;;;;;;-1.82;87.30;100440.13;4898825;28;20056;-64
2023/03/07 09:57:31;;;;;;;26.65;13.88;;;;;;;-1.73;87.20;100457.50;4754081;28;20114;-64
2023/03/07 10:00:10;;;;;;;26.58;11.48;;;;;;;-2.03;87.11;100390.66;4816564;28;20058;-65
2023/03/07 10:02:48;;;;;;;23.10;9.98;;;;;;;-1.70;86.69;100454.16;4817738;28;21093;-65
2023/03/07 10:05:30;;;;;;;20.52;9.70;;;;;;;-1.48;86.75;100464.38;4828894;28;20522;-63
2023/03/07 10:08:03;;;;;;;18.13;8.85;;;;;;;-1.87;86.05;100392.97;4815031;28;20132;-63
2023/03/07 10:10:39;;;;;;;23.00;8.43;;;;;;;-1.57;85.51;100464.06;4827940;28;20077;-64
2023/03/07 10:13:26;;;;;;;14.65;7.95;;;;;;;-1.86;85.10;100443.38;4823653;28;20062;-63
2023/03/07 10:16:01;;;;;;;16.95;7.95;;;;;;;-2.02;85.37;100453.84;4817965;28;20137;-65
2023/03/07 10:18:58;;;;;;;20.08;8.30;;;;;;;-2.06;85.98;100459.69;4817891;28;20141;-65
2023/03/07 10:21:43;;;;;;;20.00;8.35;;;;;;;-2.22;86.41;100464.25;4816324;28;20062;-64
2023/03/07 10:24:34;;;;;;;16.88;7.80;;;;;;;-2.27;87.08;100467.41;4799357;28;20051;-66
2023/03/07 10:27:11;;;;;;;17.88;7.55;;;;;;;-2.35;87.64;100469.69;4802772;28;20065;-64
2023/03/07 10:29:48;;;;;;;29.40;10.90;;;;;;;-2.76;87.97;100432.25;4816994;28;20465;-65
2023/03/07 10:32:30;;;;;;;33.42;12.13;;;;;;;-2.38;88.48;100474.69;4828376;28;20054;-65
2023/03/07 10:35:17;;;;;;;30.02;12.65;;;;;;;-2.30;88.55;100482.66;4893636;28;20128;-65
2023/03/07 10:37:54;;;;;;;25.83;9.10;;;;;;;-2.52;88.51;100432.31;4894298;28;20159;-65
2023/03/07 10:40:29;;;;;;;25.02;9.98;;;;;;;-2.39;87.86;100447.38;4898235;28;20484;-64
2023/03/07 10:43:00;;;;;;;18.50;7.78;;;;;;;-2.17;87.74;100483.22;4905862;28;20817;-66
2023/03/07 10:45:36;;;;;;;19.25;9.23;;;;;;;-2.08;87.61;100484.38;4905767;28;20052;-65
2023/03/07 10:48:15;;;;;;;19.80;9.38;;;;;;;-2.15;86.73;100477.25;4903889;28;20045;-64
2023/03/07 10:50:51;;;;;;;21.23;9.90;;;;;;;-2.15;86.33;100483.25;4900235;28;20060;-67
2023/03/07 10:53:27;;;;;;;25.13;11.38;;;;;;;-2.28;85.88;100471.66;4903391;28;20526;-65
2023/03/07 10:56:14;;;;;;;14.18;6.60;;;;;;;-2.35;86.44;100474.78;4907046;28;20628;-65
2023/03/07 10:59:01;;;;;;;13.65;6.25;;;;;;;-2.33;86.85;100487.66;4895012;28;20059;-67
2023/03/07 11:01:34;;;;;;;15.63;7.10;;;;;;;-2.39;86.88;100483.19;4895011;28;20068;-67
2023/03/07 11:04:20;;;;;;;15.07;6.90;;;;;;;-2.41;87.03;100484.81;4912516;28;20113;-68
2023/03/07 11:06:54;;;;;;;13.52;6.78;;;;;;;-2.42;87.01;100488.16;4895190;28;20139;-67
2023/03/07 11:09:31;;;;;;;15.00;6.50;;;;;;;-2.45;86.79;100475.25;4910172;28;20055;-70
2023/03/07 11:12:13;;;;;;;13.25;6.45;;;;;;;-2.35;86.58;100485.03;4896173;28;20068;-67
2023/03/07 11:14:49;;;;;;;16.70;6.75;;;;;;;-2.46;86.02;100470.97;4897006;28;20143;-66
2023/03/07 11:17:23;;;;;;;11.68;5.60;;;;;;;-2.84;85.92;100414.06;4902246;28;20056;-69
2023/03/07 11:19:55;;;;;;;16.77;6.25;;;;;;;-2.41;85.73;100500.16;4906065;28;20084;-69
2023/03/07 11:22:29;;;;;;;14.32;7.15;;;;;;;-2.39;85.47;100504.53;4913473;28;20052;-68
2023/03/07 11:25:02;;;;;;;15.85;7.20;;;;;;;-2.35;85.49;100509.75;4906015;28;20057;-70
2023/03/07 11:27:39;;;;;;;17.27;6.80;;;;;;;-2.30;85.44;100509.13;4908278;28;20058;-68
2023/03/07 11:30:25;;;;;;;25.05;11.45;;;;;;;-2.30;84.85;100506.56;4903739;28;20055;-65
2023/03/07 11:33:18;;;;;;;34.15;15.98;;;;;;;-2.30;84.12;100533.84;4895824;28;20056;-70
2023/03/07 11:36:02;;;;;;;22.73;10.32;;;;;;;-2.32;83.89;100551.72;4893919;28;21790;-71
2023/03/07 11:38:53;;;;;;;24.23;11.30;;;;;;;-2.38;83.51;100538.66;4893550;28;20147;-69
2023/03/07 11:41:28;;;;;;;20.65;10.30;;;;;;;-2.41;83.58;100541.09;4903065;28;20075;-74
2023/03/07 11:44:30;;;;;;;25.50;11.63;;;;;;;-2.56;83.22;100535.38;4904355;28;20052;-74
2023/03/07 11:47:18;;;;;;;31.65;14.88;;;;;;;-2.55;83.62;100537.09;4815280;28;20471;-68
2023/03/07 11:50:22;;;;;;;23.10;10.13;;;;;;;-2.38;84.22;100542.09;4794048;28;20757;-70
2023/03/07 11:53:15;;;;;;;24.92;9.73;;;;;;;-2.42;83.92;100552.13;4789858;28;20062;-75
2023/03/07 11:55:58;;;;;;;25.73;11.15;;;;;;;-2.72;83.06;100532.19;4798001;28;20652;-66